sensor_id;sensor_type;location;lat;lon;timestamp;temperature;humidity
16879;DHT22;8556;52.218;9.884;2023-07-31T00:00:16;16.00;99.90
16879;DHT22;8556;52.218;9.884;2023-07-31T00:02:43;16.20;99.90
16879;DHT22;8556;52.218;9.884;2023-07-31T00:05:09;16.10;99.90
16879;DHT22;8556;52.218;9.884;2023-07-31T00:07:36;16.00;99.90
16879;DHT22;8556;52.218;9.884;2023-07-31T00:10:03;16.20;99.90
16879;DHT22;8556;52.218;9.884;2023-07-31T00:12:30;16.00;99.90
16879;DHT22;8556;52.218;9.884;2023-07-31T00:14:59;16.10;99.90
16879;DHT22;8556;52.218;9.884;2023-07-31T00:17:26;16.20;99.90
16879;DHT22;8556;52.218;9.884;2023-07-31T00:19:53;16.10;99.90
16879;DHT22;8556;52.218;9.884;2023-07-31T00:22:20;16.00;99.90
16879;DHT22;8556;52.218;9.884;2023-07-31T00:24:46;16.00;99.90
16879;DHT22;8556;52.218;9.884;2023-07-31T00:27:13;16.10;99.90
16879;DHT22;8556;52.218;9.884;2023-07-31T00:29:40;16.10;99.90
16879;DHT22;8556;52.218;9.884;2023-07-31T00:32:08;16.20;99.90
16879;DHT22;8556;52.218;9.884;2023-07-31T00:34:35;16.10;99.90
16879;DHT22;8556;52.218;9.884;2023-07-31T00:37:02;16.10;99.90
16879;DHT22;8556;52.218;9.884;2023-07-31T00:39:30;16.20;99.90
16879;DHT22;8556;52.218;9.884;2023-07-31T00:41:57;16.10;99.90
16879;DHT22;8556;52.218;9.884;2023-07-31T00:44:24;16.20;99.90
16879;DHT22;8556;52.218;9.884;2023-07-31T00:46:50;16.20;99.90
16879;DHT22;8556;52.218;9.884;2023-07-31T00:49:19;16.10;99.90
16879;DHT22;8556;52.218;9.884;2023-07-31T00:51:46;16.20;99.90
16879;DHT22;8556;52.218;9.884;2023-07-31T00:54:13;16.20;99.90
16879;DHT22;8556;52.218;9.884;2023-07-31T00:56:41;16.10;99.90
16879;DHT22;8556;52.218;9.884;2023-07-31T00:59:08;15.90;99.90
16879;DHT22;8556;52.218;9.884;2023-07-31T01:01:35;16.10;99.90
16879;DHT22;8556;52.218;9.884;2023-07-31T01:04:02;16.10;99.90
16879;DHT22;8556;52.218;9.884;2023-07-31T01:06:37;16.10;99.90
16879;DHT22;8556;52.218;9.884;2023-07-31T01:09:10;16.10;99.90
16879;DHT22;8556;52.218;9.884;2023-07-31T01:11:43;16.10;99.90
16879;DHT22;8556;52.218;9.884;2023-07-31T01:14:12;16.10;99.90
16879;DHT22;8556;52.218;9.884;2023-07-31T01:16:39;16.10;99.90
16879;DHT22;8556;52.218;9.884;2023-07-31T01:19:06;15.90;99.90
16879;DHT22;8556;52.218;9.884;2023-07-31T01:21:51;15.90;99.90
16879;DHT22;8556;52.218;9.884;2023-07-31T01:24:22;16.00;99.90
16879;DHT22;8556;52.218;9.884;2023-07-31T01:26:55;16.00;99.90
16879;DHT22;8556;52.218;9.884;2023-07-31T01:29:29;16.10;99.90
16879;DHT22;8556;52.218;9.884;2023-07-31T01:32:01;16.00;99.90
16879;DHT22;8556;52.218;9.884;2023-07-31T01:34:29;16.00;99.90
16879;DHT22;8556;52.218;9.884;2023-07-31T01:36:56;15.90;99.90
16879;DHT22;8556;52.218;9.884;2023-07-31T01:39:23;16.10;99.90
16879;DHT22;8556;52.218;9.884;2023-07-31T01:41:52;16.10;99.90
16879;DHT22;8556;52.218;9.884;2023-07-31T01:44:18;16.00;99.90
16879;DHT22;8556;52.218;9.884;2023-07-31T01:46:45;15.90;99.90
16879;DHT22;8556;52.218;9.884;2023-07-31T01:49:12;15.90;99.90
16879;DHT22;8556;52.218;9.884;2023-07-31T01:51:39;15.90;99.90
16879;DHT22;8556;52.218;9.884;2023-07-31T01:54:06;16.00;99.90
16879;DHT22;8556;52.218;9.884;2023-07-31T01:56:33;15.90;99.90
16879;DHT22;8556;52.218;9.884;2023-07-31T01:59:01;15.80;99.90
16879;DHT22;8556;52.218;9.884;2023-07-31T02:01:28;15.80;99.90
16879;DHT22;8556;52.218;9.884;2023-07-31T02:03:55;15.90;99.90
16879;DHT22;8556;52.218;9.884;2023-07-31T02:06:21;15.80;99.90
16879;DHT22;8556;52.218;9.884;2023-07-31T02:08:49;15.80;99.90
16879;DHT22;8556;52.218;9.884;2023-07-31T02:11:15;15.80;99.90
16879;DHT22;8556;52.218;9.884;2023-07-31T02:13:42;15.90;99.90
16879;DHT22;8556;52.218;9.884;2023-07-31T02:16:10;15.90;99.90
16879;DHT22;8556;52.218;9.884;2023-07-31T02:18:37;15.80;99.90
16879;DHT22;8556;52.218;9.884;2023-07-31T02:21:04;15.80;99.90
16879;DHT22;8556;52.218;9.884;2023-07-31T02:23:31;15.90;99.90
16879;DHT22;8556;52.218;9.884;2023-07-31T02:25:58;16.00;99.90
16879;DHT22;8556;52.218;9.884;2023-07-31T02:28:25;16.00;99.90
16879;DHT22;8556;52.218;9.884;2023-07-31T02:30:52;15.90;99.90
16879;DHT22;8556;52.218;9.884;2023-07-31T02:33:20;15.90;99.90
16879;DHT22;8556;52.218;9.884;2023-07-31T02:35:47;16.00;99.90
16879;DHT22;8556;52.218;9.884;2023-07-31T02:38:13;15.90;99.90
16879;DHT22;8556;52.218;9.884;2023-07-31T02:40:40;16.00;99.90
16879;DHT22;8556;52.218;9.884;2023-07-31T02:43:07;15.90;99.90
16879;DHT22;8556;52.218;9.884;2023-07-31T02:45:34;15.90;99.90
16879;DHT22;8556;52.218;9.884;2023-07-31T02:48:01;15.80;99.90
16879;DHT22;8556;52.218;9.884;2023-07-31T02:50:29;16.00;99.90
16879;DHT22;8556;52.218;9.884;2023-07-31T02:52:57;16.00;99.90
16879;DHT22;8556;52.218;9.884;2023-07-31T02:55:24;16.00;99.90
16879;DHT22;8556;52.218;9.884;2023-07-31T02:57:51;15.90;99.90
16879;DHT22;8556;52.218;9.884;2023-07-31T03:00:18;16.00;99.90
16879;DHT22;8556;52.218;9.884;2023-07-31T03:02:45;15.90;99.90
16879;DHT22;8556;52.218;9.884;2023-07-31T03:05:12;15.90;99.90
16879;DHT22;8556;52.218;9.884;2023-07-31T03:07:40;15.80;99.90
16879;DHT22;8556;52.218;9.884;2023-07-31T03:10:07;15.80;99.90
16879;DHT22;8556;52.218;9.884;2023-07-31T03:12:34;15.80;99.90
16879;DHT22;8556;52.218;9.884;2023-07-31T03:15:01;15.90;99.90
16879;DHT22;8556;52.218;9.884;2023-07-31T03:17:28;15.80;99.90
16879;DHT22;8556;52.218;9.884;2023-07-31T03:19:55;15.90;99.90
16879;DHT22;8556;52.218;9.884;2023-07-31T03:22:21;15.80;99.90
16879;DHT22;8556;52.218;9.884;2023-07-31T03:24:49;15.80;99.90
16879;DHT22;8556;52.218;9.884;2023-07-31T03:27:16;15.80;99.90
16879;DHT22;8556;52.218;9.884;2023-07-31T03:29:43;15.90;99.90
16879;DHT22;8556;52.218;9.884;2023-07-31T03:32:10;15.80;99.90
16879;DHT22;8556;52.218;9.884;2023-07-31T03:34:36;15.90;99.90
16879;DHT22;8556;52.218;9.884;2023-07-31T03:37:04;15.80;99.90
16879;DHT22;8556;52.218;9.884;2023-07-31T03:39:31;15.80;99.90
16879;DHT22;8556;52.218;9.884;2023-07-31T03:41:59;15.80;99.90
16879;DHT22;8556;52.218;9.884;2023-07-31T03:44:26;15.80;99.90
16879;DHT22;8556;52.218;9.884;2023-07-31T03:46:53;15.80;99.90
16879;DHT22;8556;52.218;9.884;2023-07-31T03:49:20;15.80;99.90
16879;DHT22;8556;52.218;9.884;2023-07-31T03:51:46;15.80;99.90
16879;DHT22;8556;52.218;9.884;2023-07-31T03:54:13;15.80;99.90
16879;DHT22;8556;52.218;9.884;2023-07-31T03:56:40;15.80;99.90
16879;DHT22;8556;52.218;9.884;2023-07-31T03:59:08;15.70;99.90
16879;DHT22;8556;52.218;9.884;2023-07-31T04:01:37;15.70;99.90
16879;DHT22;8556;52.218;9.884;2023-07-31T04:04:04;15.70;99.90
16879;DHT22;8556;52.218;9.884;2023-07-31T04:06:31;15.70;99.90
16879;DHT22;8556;52.218;9.884;2023-07-31T04:08:57;15.60;99.90
16879;DHT22;8556;52.218;9.884;2023-07-31T04:11:24;15.60;99.90
16879;DHT22;8556;52.218;9.884;2023-07-31T04:13:51;15.60;99.90
16879;DHT22;8556;52.218;9.884;2023-07-31T04:16:19;15.40;99.90
16879;DHT22;8556;52.218;9.884;2023-07-31T04:18:46;15.60;99.90
16879;DHT22;8556;52.218;9.884;2023-07-31T04:21:12;15.40;99.90
16879;DHT22;8556;52.218;9.884;2023-07-31T04:23:39;15.50;99.90
16879;DHT22;8556;52.218;9.884;2023-07-31T04:26:06;15.50;99.90
16879;DHT22;8556;52.218;9.884;2023-07-31T04:28:33;15.50;99.90
16879;DHT22;8556;52.218;9.884;2023-07-31T04:30:59;15.50;99.90
16879;DHT22;8556;52.218;9.884;2023-07-31T04:33:28;15.50;99.90
16879;DHT22;8556;52.218;9.884;2023-07-31T04:35:55;15.40;99.90
16879;DHT22;8556;52.218;9.884;2023-07-31T04:38:22;15.40;99.90
16879;DHT22;8556;52.218;9.884;2023-07-31T04:40:49;15.40;99.90
16879;DHT22;8556;52.218;9.884;2023-07-31T04:43:16;15.40;99.90
16879;DHT22;8556;52.218;9.884;2023-07-31T04:45:44;15.40;99.90
16879;DHT22;8556;52.218;9.884;2023-07-31T04:48:12;15.40;99.90
16879;DHT22;8556;52.218;9.884;2023-07-31T04:50:41;15.30;99.90
16879;DHT22;8556;52.218;9.884;2023-07-31T04:53:07;15.40;99.90
16879;DHT22;8556;52.218;9.884;2023-07-31T04:55:34;15.30;99.90
16879;DHT22;8556;52.218;9.884;2023-07-31T04:58:05;15.40;99.90
16879;DHT22;8556;52.218;9.884;2023-07-31T05:00:32;15.40;99.90
16879;DHT22;8556;52.218;9.884;2023-07-31T05:02:59;15.30;99.90
16879;DHT22;8556;52.218;9.884;2023-07-31T05:05:25;15.40;99.90
16879;DHT22;8556;52.218;9.884;2023-07-31T05:07:54;15.40;99.90
16879;DHT22;8556;52.218;9.884;2023-07-31T05:10:26;15.50;99.90
16879;DHT22;8556;52.218;9.884;2023-07-31T05:12:55;15.40;99.90
16879;DHT22;8556;52.218;9.884;2023-07-31T05:15:31;15.50;99.90
16879;DHT22;8556;52.218;9.884;2023-07-31T05:18:18;15.50;99.90
16879;DHT22;8556;52.218;9.884;2023-07-31T05:20:51;15.60;99.90
16879;DHT22;8556;52.218;9.884;2023-07-31T05:23:20;15.60;99.90
16879;DHT22;8556;52.218;9.884;2023-07-31T05:26:02;15.70;99.90
16879;DHT22;8556;52.218;9.884;2023-07-31T05:28:29;15.70;99.90
16879;DHT22;8556;52.218;9.884;2023-07-31T05:31:07;15.70;99.90
16879;DHT22;8556;52.218;9.884;2023-07-31T05:33:45;15.70;99.90
16879;DHT22;8556;52.218;9.884;2023-07-31T05:36:16;15.60;99.90
16879;DHT22;8556;52.218;9.884;2023-07-31T05:38:45;15.80;99.90
16879;DHT22;8556;52.218;9.884;2023-07-31T05:41:22;15.90;99.90
16879;DHT22;8556;52.218;9.884;2023-07-31T05:43:52;15.90;99.90
16879;DHT22;8556;52.218;9.884;2023-07-31T05:46:24;16.00;99.90
16879;DHT22;8556;52.218;9.884;2023-07-31T05:49:06;16.10;99.90
16879;DHT22;8556;52.218;9.884;2023-07-31T05:51:34;16.00;99.90
16879;DHT22;8556;52.218;9.884;2023-07-31T05:54:03;16.10;99.90
16879;DHT22;8556;52.218;9.884;2023-07-31T05:56:30;16.00;99.90
16879;DHT22;8556;52.218;9.884;2023-07-31T05:58:57;16.00;99.90
16879;DHT22;8556;52.218;9.884;2023-07-31T06:01:24;16.00;99.90
16879;DHT22;8556;52.218;9.884;2023-07-31T06:03:54;16.00;99.90
16879;DHT22;8556;52.218;9.884;2023-07-31T06:06:21;16.00;99.90
16879;DHT22;8556;52.218;9.884;2023-07-31T06:08:48;16.00;99.90
16879;DHT22;8556;52.218;9.884;2023-07-31T06:11:19;16.10;99.90
16879;DHT22;8556;52.218;9.884;2023-07-31T06:13:49;16.10;99.90
16879;DHT22;8556;52.218;9.884;2023-07-31T06:16:19;16.00;99.90
16879;DHT22;8556;52.218;9.884;2023-07-31T06:18:47;16.00;99.90
16879;DHT22;8556;52.218;9.884;2023-07-31T06:21:13;16.00;99.90
16879;DHT22;8556;52.218;9.884;2023-07-31T06:23:40;16.10;99.90
16879;DHT22;8556;52.218;9.884;2023-07-31T06:26:10;16.10;99.90
16879;DHT22;8556;52.218;9.884;2023-07-31T06:28:38;16.10;99.90
16879;DHT22;8556;52.218;9.884;2023-07-31T06:31:05;16.10;99.90
16879;DHT22;8556;52.218;9.884;2023-07-31T06:33:37;16.20;99.90
16879;DHT22;8556;52.218;9.884;2023-07-31T06:36:04;16.10;99.90
16879;DHT22;8556;52.218;9.884;2023-07-31T06:38:32;16.10;99.90
16879;DHT22;8556;52.218;9.884;2023-07-31T06:40:59;16.00;99.90
16879;DHT22;8556;52.218;9.884;2023-07-31T06:43:25;16.00;99.90
16879;DHT22;8556;52.218;9.884;2023-07-31T06:45:54;16.00;99.90
16879;DHT22;8556;52.218;9.884;2023-07-31T06:48:20;16.10;99.90
16879;DHT22;8556;52.218;9.884;2023-07-31T06:50:47;16.10;99.90
16879;DHT22;8556;52.218;9.884;2023-07-31T06:53:14;16.10;99.90
16879;DHT22;8556;52.218;9.884;2023-07-31T06:55:41;16.20;99.90
16879;DHT22;8556;52.218;9.884;2023-07-31T06:58:08;16.20;99.90
16879;DHT22;8556;52.218;9.884;2023-07-31T07:00:35;16.10;99.90
16879;DHT22;8556;52.218;9.884;2023-07-31T07:03:03;16.20;99.90
16879;DHT22;8556;52.218;9.884;2023-07-31T07:05:30;16.20;99.90
16879;DHT22;8556;52.218;9.884;2023-07-31T07:07:57;16.20;99.90
16879;DHT22;8556;52.218;9.884;2023-07-31T07:10:24;16.20;99.90
16879;DHT22;8556;52.218;9.884;2023-07-31T07:12:51;16.20;99.90
16879;DHT22;8556;52.218;9.884;2023-07-31T07:15:18;16.20;99.90
16879;DHT22;8556;52.218;9.884;2023-07-31T07:17:45;16.30;99.90
16879;DHT22;8556;52.218;9.884;2023-07-31T07:20:13;16.20;99.90
16879;DHT22;8556;52.218;9.884;2023-07-31T07:22:40;16.20;99.90
16879;DHT22;8556;52.218;9.884;2023-07-31T07:25:08;16.20;99.90
16879;DHT22;8556;52.218;9.884;2023-07-31T07:27:35;16.30;99.90
16879;DHT22;8556;52.218;9.884;2023-07-31T07:30:02;16.40;99.90
16879;DHT22;8556;52.218;9.884;2023-07-31T07:32:29;16.30;99.90
16879;DHT22;8556;52.218;9.884;2023-07-31T07:34:56;16.30;99.90
16879;DHT22;8556;52.218;9.884;2023-07-31T07:37:24;16.50;99.90
16879;DHT22;8556;52.218;9.884;2023-07-31T07:39:51;16.50;99.90
16879;DHT22;8556;52.218;9.884;2023-07-31T07:42:18;16.50;99.90
16879;DHT22;8556;52.218;9.884;2023-07-31T07:44:45;16.60;99.90
16879;DHT22;8556;52.218;9.884;2023-07-31T07:47:12;16.60;99.90
16879;DHT22;8556;52.218;9.884;2023-07-31T07:49:39;16.60;99.90
16879;DHT22;8556;52.218;9.884;2023-07-31T07:52:06;16.60;99.90
16879;DHT22;8556;52.218;9.884;2023-07-31T07:54:35;16.70;99.90
16879;DHT22;8556;52.218;9.884;2023-07-31T07:57:01;16.70;99.90
16879;DHT22;8556;52.218;9.884;2023-07-31T07:59:28;16.80;99.90
16879;DHT22;8556;52.218;9.884;2023-07-31T08:01:55;16.70;99.90
16879;DHT22;8556;52.218;9.884;2023-07-31T08:04:23;16.70;99.90
16879;DHT22;8556;52.218;9.884;2023-07-31T08:06:49;16.80;99.90
16879;DHT22;8556;52.218;9.884;2023-07-31T08:09:16;16.80;99.90
16879;DHT22;8556;52.218;9.884;2023-07-31T08:11:44;16.60;99.90
16879;DHT22;8556;52.218;9.884;2023-07-31T08:14:11;16.70;99.90
16879;DHT22;8556;52.218;9.884;2023-07-31T08:16:38;16.70;99.90
16879;DHT22;8556;52.218;9.884;2023-07-31T08:19:05;16.70;99.90
16879;DHT22;8556;52.218;9.884;2023-07-31T08:21:32;16.70;99.90
16879;DHT22;8556;52.218;9.884;2023-07-31T08:23:59;16.80;99.90
16879;DHT22;8556;52.218;9.884;2023-07-31T08:26:25;16.90;99.90
16879;DHT22;8556;52.218;9.884;2023-07-31T08:28:54;17.00;99.90
16879;DHT22;8556;52.218;9.884;2023-07-31T08:31:20;16.90;99.90
16879;DHT22;8556;52.218;9.884;2023-07-31T08:33:47;16.90;99.90
16879;DHT22;8556;52.218;9.884;2023-07-31T08:36:14;16.90;99.90
16879;DHT22;8556;52.218;9.884;2023-07-31T08:38:41;16.90;99.90
16879;DHT22;8556;52.218;9.884;2023-07-31T08:41:07;16.90;99.90
16879;DHT22;8556;52.218;9.884;2023-07-31T08:43:35;16.90;99.90
16879;DHT22;8556;52.218;9.884;2023-07-31T08:46:04;16.90;99.90
16879;DHT22;8556;52.218;9.884;2023-07-31T08:48:32;16.90;99.90
16879;DHT22;8556;52.218;9.884;2023-07-31T08:50:58;16.90;99.90
16879;DHT22;8556;52.218;9.884;2023-07-31T08:53:25;16.90;99.90
16879;DHT22;8556;52.218;9.884;2023-07-31T08:55:53;16.80;99.90
16879;DHT22;8556;52.218;9.884;2023-07-31T08:58:20;16.70;99.90
16879;DHT22;8556;52.218;9.884;2023-07-31T09:00:47;16.70;99.90
16879;DHT22;8556;52.218;9.884;2023-07-31T09:03:17;16.60;99.90
16879;DHT22;8556;52.218;9.884;2023-07-31T09:05:46;16.60;99.90
16879;DHT22;8556;52.218;9.884;2023-07-31T09:08:17;16.60;99.90
16879;DHT22;8556;52.218;9.884;2023-07-31T09:10:45;16.60;99.90
16879;DHT22;8556;52.218;9.884;2023-07-31T09:13:12;16.60;99.90
16879;DHT22;8556;52.218;9.884;2023-07-31T09:15:40;16.70;99.90
16879;DHT22;8556;52.218;9.884;2023-07-31T09:18:09;16.70;99.90
16879;DHT22;8556;52.218;9.884;2023-07-31T09:20:38;16.80;99.90
16879;DHT22;8556;52.218;9.884;2023-07-31T09:23:09;16.80;99.90
16879;DHT22;8556;52.218;9.884;2023-07-31T09:25:37;17.00;99.90
16879;DHT22;8556;52.218;9.884;2023-07-31T09:28:05;16.90;99.90
16879;DHT22;8556;52.218;9.884;2023-07-31T09:30:45;16.90;99.90
16879;DHT22;8556;52.218;9.884;2023-07-31T09:33:12;16.90;99.90
16879;DHT22;8556;52.218;9.884;2023-07-31T09:35:40;16.90;99.90
16879;DHT22;8556;52.218;9.884;2023-07-31T09:38:09;16.90;99.90
16879;DHT22;8556;52.218;9.884;2023-07-31T09:40:38;16.90;99.90
16879;DHT22;8556;52.218;9.884;2023-07-31T09:43:06;16.90;99.90
16879;DHT22;8556;52.218;9.884;2023-07-31T09:45:34;16.90;99.90
16879;DHT22;8556;52.218;9.884;2023-07-31T09:48:03;17.10;99.90
16879;DHT22;8556;52.218;9.884;2023-07-31T09:50:36;17.00;99.90
16879;DHT22;8556;52.218;9.884;2023-07-31T09:53:05;17.10;99.90
16879;DHT22;8556;52.218;9.884;2023-07-31T09:55:32;17.00;99.90
16879;DHT22;8556;52.218;9.884;2023-07-31T09:58:04;16.90;99.90
16879;DHT22;8556;52.218;9.884;2023-07-31T10:00:32;17.00;99.90
16879;DHT22;8556;52.218;9.884;2023-07-31T10:03:00;17.10;99.90
16879;DHT22;8556;52.218;9.884;2023-07-31T10:05:30;17.10;99.90
16879;DHT22;8556;52.218;9.884;2023-07-31T10:07:58;17.10;99.90
16879;DHT22;8556;52.218;9.884;2023-07-31T10:10:27;17.10;99.90
16879;DHT22;8556;52.218;9.884;2023-07-31T10:12:54;17.30;99.90
16879;DHT22;8556;52.218;9.884;2023-07-31T10:15:23;17.40;99.90
16879;DHT22;8556;52.218;9.884;2023-07-31T10:17:50;17.50;99.90
16879;DHT22;8556;52.218;9.884;2023-07-31T10:20:18;17.60;99.90
16879;DHT22;8556;52.218;9.884;2023-07-31T10:22:45;17.70;99.90
16879;DHT22;8556;52.218;9.884;2023-07-31T10:25:12;17.80;99.90
16879;DHT22;8556;52.218;9.884;2023-07-31T10:27:41;17.90;99.90
16879;DHT22;8556;52.218;9.884;2023-07-31T10:30:11;17.80;99.90
16879;DHT22;8556;52.218;9.884;2023-07-31T10:32:41;18.00;99.90
16879;DHT22;8556;52.218;9.884;2023-07-31T10:35:08;18.10;99.90
16879;DHT22;8556;52.218;9.884;2023-07-31T10:37:37;18.10;99.90
16879;DHT22;8556;52.218;9.884;2023-07-31T10:40:06;18.00;99.90
16879;DHT22;8556;52.218;9.884;2023-07-31T10:42:37;18.10;99.90
16879;DHT22;8556;52.218;9.884;2023-07-31T10:45:08;18.20;99.90
16879;DHT22;8556;52.218;9.884;2023-07-31T10:47:39;18.30;99.90
16879;DHT22;8556;52.218;9.884;2023-07-31T10:50:17;18.50;99.90
16879;DHT22;8556;52.218;9.884;2023-07-31T10:52:47;18.90;99.90
16879;DHT22;8556;52.218;9.884;2023-07-31T10:55:22;19.20;99.90
16879;DHT22;8556;52.218;9.884;2023-07-31T10:57:48;19.30;99.90
16879;DHT22;8556;52.218;9.884;2023-07-31T11:00:22;19.30;99.90
16879;DHT22;8556;52.218;9.884;2023-07-31T11:03:00;19.40;99.90
16879;DHT22;8556;52.218;9.884;2023-07-31T11:05:47;19.30;99.90
16879;DHT22;8556;52.218;9.884;2023-07-31T11:08:16;19.70;99.90
16879;DHT22;8556;52.218;9.884;2023-07-31T11:10:43;19.70;99.90
16879;DHT22;8556;52.218;9.884;2023-07-31T11:13:11;19.70;99.90
16879;DHT22;8556;52.218;9.884;2023-07-31T11:15:39;19.40;99.90
16879;DHT22;8556;52.218;9.884;2023-07-31T11:18:06;19.40;99.90
16879;DHT22;8556;52.218;9.884;2023-07-31T11:20:35;19.30;99.90
16879;DHT22;8556;52.218;9.884;2023-07-31T11:23:03;19.20;99.90
16879;DHT22;8556;52.218;9.884;2023-07-31T11:25:30;19.30;99.90
16879;DHT22;8556;52.218;9.884;2023-07-31T11:27:58;19.20;99.90
16879;DHT22;8556;52.218;9.884;2023-07-31T11:30:28;19.10;99.90
16879;DHT22;8556;52.218;9.884;2023-07-31T11:32:56;19.00;99.90
16879;DHT22;8556;52.218;9.884;2023-07-31T11:35:23;19.00;99.90
16879;DHT22;8556;52.218;9.884;2023-07-31T11:37:50;19.00;99.90
16879;DHT22;8556;52.218;9.884;2023-07-31T11:40:18;19.00;99.90
16879;DHT22;8556;52.218;9.884;2023-07-31T11:42:45;19.00;99.90
16879;DHT22;8556;52.218;9.884;2023-07-31T11:45:12;19.10;99.90
16879;DHT22;8556;52.218;9.884;2023-07-31T11:47:39;19.20;99.90
16879;DHT22;8556;52.218;9.884;2023-07-31T11:50:11;19.20;99.90
16879;DHT22;8556;52.218;9.884;2023-07-31T11:52:40;19.20;99.90
16879;DHT22;8556;52.218;9.884;2023-07-31T11:55:09;19.10;99.90
16879;DHT22;8556;52.218;9.884;2023-07-31T11:57:37;19.20;99.90
16879;DHT22;8556;52.218;9.884;2023-07-31T12:00:06;19.10;99.90
16879;DHT22;8556;52.218;9.884;2023-07-31T12:02:34;19.20;99.90
16879;DHT22;8556;52.218;9.884;2023-07-31T12:05:01;19.30;99.90
16879;DHT22;8556;52.218;9.884;2023-07-31T12:07:43;19.20;99.90
16879;DHT22;8556;52.218;9.884;2023-07-31T12:10:10;19.20;99.90
16879;DHT22;8556;52.218;9.884;2023-07-31T12:12:37;19.20;99.90
16879;DHT22;8556;52.218;9.884;2023-07-31T12:15:14;19.20;99.90
16879;DHT22;8556;52.218;9.884;2023-07-31T12:17:41;19.20;99.90
16879;DHT22;8556;52.218;9.884;2023-07-31T12:20:09;18.90;99.90
16879;DHT22;8556;52.218;9.884;2023-07-31T12:22:37;18.90;99.90
16879;DHT22;8556;52.218;9.884;2023-07-31T12:25:04;18.80;99.90
16879;DHT22;8556;52.218;9.884;2023-07-31T12:27:33;18.90;99.90
16879;DHT22;8556;52.218;9.884;2023-07-31T12:30:00;18.90;99.90
16879;DHT22;8556;52.218;9.884;2023-07-31T12:32:30;18.80;99.90
16879;DHT22;8556;52.218;9.884;2023-07-31T12:34:59;18.90;99.90
16879;DHT22;8556;52.218;9.884;2023-07-31T12:37:28;19.10;99.90
16879;DHT22;8556;52.218;9.884;2023-07-31T12:39:57;19.10;99.90
16879;DHT22;8556;52.218;9.884;2023-07-31T12:42:30;19.20;99.90
16879;DHT22;8556;52.218;9.884;2023-07-31T12:44:57;19.10;99.90
16879;DHT22;8556;52.218;9.884;2023-07-31T12:47:24;18.70;99.90
16879;DHT22;8556;52.218;9.884;2023-07-31T12:49:51;18.60;99.90
16879;DHT22;8556;52.218;9.884;2023-07-31T12:52:17;18.50;99.90
16879;DHT22;8556;52.218;9.884;2023-07-31T12:54:44;18.80;99.90
16879;DHT22;8556;52.218;9.884;2023-07-31T12:57:13;18.60;99.90
16879;DHT22;8556;52.218;9.884;2023-07-31T12:59:39;18.80;99.90
16879;DHT22;8556;52.218;9.884;2023-07-31T13:02:06;18.90;99.90
16879;DHT22;8556;52.218;9.884;2023-07-31T13:04:33;19.20;99.90
16879;DHT22;8556;52.218;9.884;2023-07-31T13:07:00;19.40;99.90
16879;DHT22;8556;52.218;9.884;2023-07-31T13:09:27;19.40;99.90
16879;DHT22;8556;52.218;9.884;2023-07-31T13:11:53;19.50;99.90
16879;DHT22;8556;52.218;9.884;2023-07-31T13:14:22;19.40;99.90
16879;DHT22;8556;52.218;9.884;2023-07-31T13:16:48;19.30;99.90
16879;DHT22;8556;52.218;9.884;2023-07-31T13:19:15;19.30;99.90
16879;DHT22;8556;52.218;9.884;2023-07-31T13:21:42;19.40;99.90
16879;DHT22;8556;52.218;9.884;2023-07-31T13:24:09;19.30;99.90
16879;DHT22;8556;52.218;9.884;2023-07-31T13:26:36;19.30;99.90
16879;DHT22;8556;52.218;9.884;2023-07-31T13:29:03;19.30;99.90
16879;DHT22;8556;52.218;9.884;2023-07-31T13:31:31;19.40;99.90
16879;DHT22;8556;52.218;9.884;2023-07-31T13:33:58;19.30;99.90
16879;DHT22;8556;52.218;9.884;2023-07-31T13:36:25;19.60;99.90
16879;DHT22;8556;52.218;9.884;2023-07-31T13:38:52;19.50;99.90
16879;DHT22;8556;52.218;9.884;2023-07-31T13:41:18;19.70;99.90
16879;DHT22;8556;52.218;9.884;2023-07-31T13:43:45;19.90;99.90
16879;DHT22;8556;52.218;9.884;2023-07-31T13:46:12;20.00;99.90
16879;DHT22;8556;52.218;9.884;2023-07-31T13:48:40;19.80;99.90
16879;DHT22;8556;52.218;9.884;2023-07-31T13:51:07;19.70;99.90
16879;DHT22;8556;52.218;9.884;2023-07-31T13:53:34;19.70;99.90
16879;DHT22;8556;52.218;9.884;2023-07-31T13:56:01;19.70;99.90
16879;DHT22;8556;52.218;9.884;2023-07-31T13:58:27;19.50;99.90
16879;DHT22;8556;52.218;9.884;2023-07-31T14:00:54;19.50;99.90
16879;DHT22;8556;52.218;9.884;2023-07-31T14:03:21;19.30;99.90
16879;DHT22;8556;52.218;9.884;2023-07-31T14:05:51;19.30;99.90
16879;DHT22;8556;52.218;9.884;2023-07-31T14:08:18;19.30;99.90
16879;DHT22;8556;52.218;9.884;2023-07-31T14:10:46;19.20;99.90
16879;DHT22;8556;52.218;9.884;2023-07-31T14:13:12;19.40;99.90
16879;DHT22;8556;52.218;9.884;2023-07-31T14:15:41;19.40;99.90
16879;DHT22;8556;52.218;9.884;2023-07-31T14:18:08;19.50;99.90
16879;DHT22;8556;52.218;9.884;2023-07-31T14:20:37;19.60;99.90
16879;DHT22;8556;52.218;9.884;2023-07-31T14:48:00;19.80;99.90
16879;DHT22;8556;52.218;9.884;2023-07-31T14:50:28;19.70;99.90
16879;DHT22;8556;52.218;9.884;2023-07-31T14:52:55;19.90;99.90
16879;DHT22;8556;52.218;9.884;2023-07-31T14:55:22;20.00;99.90
16879;DHT22;8556;52.218;9.884;2023-07-31T14:57:49;20.00;99.90
16879;DHT22;8556;52.218;9.884;2023-07-31T15:00:16;20.00;99.90
16879;DHT22;8556;52.218;9.884;2023-07-31T15:02:42;20.00;99.90
16879;DHT22;8556;52.218;9.884;2023-07-31T15:05:11;20.20;99.90
16879;DHT22;8556;52.218;9.884;2023-07-31T15:07:37;20.30;99.90
16879;DHT22;8556;52.218;9.884;2023-07-31T15:10:05;20.20;99.90
16879;DHT22;8556;52.218;9.884;2023-07-31T15:12:32;20.10;99.90
16879;DHT22;8556;52.218;9.884;2023-07-31T15:15:00;20.20;99.90
16879;DHT22;8556;52.218;9.884;2023-07-31T15:17:27;20.20;99.90
16879;DHT22;8556;52.218;9.884;2023-07-31T15:19:55;20.10;99.90
16879;DHT22;8556;52.218;9.884;2023-07-31T15:22:23;20.10;99.90
16879;DHT22;8556;52.218;9.884;2023-07-31T15:24:51;20.20;99.90
16879;DHT22;8556;52.218;9.884;2023-07-31T15:27:17;20.20;99.90
16879;DHT22;8556;52.218;9.884;2023-07-31T15:29:44;20.30;99.90
16879;DHT22;8556;52.218;9.884;2023-07-31T15:32:11;20.30;99.90
16879;DHT22;8556;52.218;9.884;2023-07-31T15:34:38;20.20;99.90
16879;DHT22;8556;52.218;9.884;2023-07-31T15:37:05;20.20;99.90
16879;DHT22;8556;52.218;9.884;2023-07-31T15:39:33;20.30;99.90
16879;DHT22;8556;52.218;9.884;2023-07-31T15:42:00;20.30;99.90
16879;DHT22;8556;52.218;9.884;2023-07-31T15:44:27;20.40;99.90
16879;DHT22;8556;52.218;9.884;2023-07-31T15:46:53;20.50;99.90
16879;DHT22;8556;52.218;9.884;2023-07-31T15:49:20;20.30;99.90
16879;DHT22;8556;52.218;9.884;2023-07-31T15:51:47;20.30;99.90
16879;DHT22;8556;52.218;9.884;2023-07-31T15:54:14;20.40;99.90
16879;DHT22;8556;52.218;9.884;2023-07-31T15:56:42;20.30;99.90
16879;DHT22;8556;52.218;9.884;2023-07-31T15:59:09;20.30;99.90
16879;DHT22;8556;52.218;9.884;2023-07-31T16:01:36;20.20;99.90
16879;DHT22;8556;52.218;9.884;2023-07-31T16:04:03;20.10;99.90
16879;DHT22;8556;52.218;9.884;2023-07-31T16:06:30;20.20;99.90
16879;DHT22;8556;52.218;9.884;2023-07-31T16:08:57;20.20;99.90
16879;DHT22;8556;52.218;9.884;2023-07-31T16:11:24;20.00;99.90
16879;DHT22;8556;52.218;9.884;2023-07-31T16:13:52;19.90;99.90